createdAt,value
2018-09-27T00:01:39.217Z,5.82
2018-09-27T00:04:05.529Z,5.80
2018-09-27T00:06:31.866Z,5.77
2018-09-27T00:08:58.202Z,5.53
2018-09-27T00:11:24.515Z,5.36
2018-09-27T00:13:50.944Z,5.34
2018-09-27T00:16:17.260Z,5.18
2018-09-27T00:18:43.620Z,5.11
2018-09-27T00:21:09.960Z,5.10
2018-09-27T00:23:36.301Z,5.08
2018-09-27T00:26:02.616Z,5.08
2018-09-27T00:28:28.955Z,5.01
2018-09-27T00:30:55.291Z,5.22
2018-09-27T00:33:21.626Z,5.04
2018-09-27T00:35:47.982Z,5.11
2018-09-27T00:38:14.324Z,5.02
2018-09-27T00:40:40.659Z,4.94
2018-09-27T00:43:06.977Z,4.82
2018-09-27T00:45:33.314Z,4.73
2018-09-27T00:47:59.628Z,4.64
2018-09-27T00:50:25.970Z,4.69
2018-09-27T00:52:52.291Z,4.66
2018-09-27T00:55:18.605Z,4.51
2018-09-27T00:57:44.925Z,4.48
2018-09-27T01:00:11.237Z,4.60
2018-09-27T01:02:37.557Z,4.47
2018-09-27T01:05:03.935Z,4.37
2018-09-27T01:07:30.251Z,4.29
2018-09-27T01:09:56.592Z,4.32
2018-09-27T01:12:22.933Z,4.66
2018-09-27T01:14:49.246Z,4.58
2018-09-27T01:17:15.589Z,4.45
2018-09-27T01:19:41.929Z,4.43
2018-09-27T01:22:08.263Z,4.30
2018-09-27T01:24:34.576Z,4.19
2018-09-27T01:27:00.904Z,4.26
2018-09-27T01:29:27.218Z,4.28
2018-09-27T01:31:53.529Z,4.30
2018-09-27T01:34:19.911Z,4.16
2018-09-27T01:36:46.284Z,4.01
2018-09-27T01:39:12.614Z,3.99
2018-09-27T01:41:38.968Z,3.90
2018-09-27T01:44:05.301Z,3.80
2018-09-27T01:46:31.635Z,3.77
2018-09-27T01:48:58.056Z,3.97
2018-09-27T01:51:24.402Z,4.02
2018-09-27T01:53:50.813Z,3.80
2018-09-27T01:56:17.197Z,3.76
2018-09-27T01:58:43.509Z,3.75
2018-09-27T02:01:09.819Z,3.74
2018-09-27T02:03:36.191Z,3.62
2018-09-27T02:06:02.501Z,3.37
2018-09-27T02:08:28.839Z,3.16
2018-09-27T02:10:55.174Z,3.28
2018-09-27T02:13:21.489Z,3.24
2018-09-27T02:15:47.809Z,3.26
2018-09-27T02:18:14.121Z,3.34
2018-09-27T02:20:40.444Z,3.26
2018-09-27T02:23:06.783Z,3.21
2018-09-27T02:25:33.098Z,3.06
2018-09-27T02:27:59.438Z,2.97
2018-09-27T02:30:25.753Z,2.82
2018-09-27T02:32:52.086Z,2.84
2018-09-27T02:35:18.472Z,2.93
2018-09-27T02:37:44.856Z,2.98
2018-09-27T02:40:11.169Z,3.08
2018-09-27T02:42:37.479Z,3.01
2018-09-27T02:45:03.790Z,3.04
2018-09-27T02:47:30.100Z,2.89
2018-09-27T02:49:56.458Z,2.95
2018-09-27T02:52:22.768Z,3.03
2018-09-27T02:54:49.112Z,2.98
2018-09-27T02:57:15.437Z,3.16
2018-09-27T02:59:41.776Z,3.08
2018-09-27T03:02:08.090Z,3.04
2018-09-27T03:04:34.434Z,2.93
2018-09-27T03:07:00.776Z,3.01
2018-09-27T03:09:27.088Z,2.96
2018-09-27T03:11:53.430Z,2.94
2018-09-27T03:14:19.767Z,2.87
2018-09-27T03:16:46.090Z,2.81
2018-09-27T03:19:12.451Z,2.77
2018-09-27T03:21:38.835Z,2.73
2018-09-27T03:24:05.152Z,3.03
2018-09-27T03:26:31.470Z,3.06
2018-09-27T03:28:57.823Z,3.49
2018-09-27T03:31:24.157Z,3.35
2018-09-27T03:33:50.495Z,3.08
2018-09-27T03:36:16.813Z,2.91
2018-09-27T03:38:43.129Z,2.82
2018-09-27T03:41:09.467Z,2.93
2018-09-27T03:43:35.848Z,2.97
2018-09-27T03:46:02.187Z,2.95
2018-09-27T03:48:28.523Z,2.79
2018-09-27T03:50:54.869Z,2.69
2018-09-27T03:53:21.193Z,2.68
2018-09-27T03:55:47.515Z,2.55
2018-09-27T03:58:13.834Z,2.48
2018-09-27T04:00:40.140Z,2.43
2018-09-27T04:03:06.530Z,2.45
2018-09-27T04:05:32.804Z,2.79
2018-09-27T04:07:59.142Z,2.79
2018-09-27T04:10:25.458Z,3.03
2018-09-27T04:12:51.796Z,2.84
2018-09-27T04:15:18.144Z,2.68
2018-09-27T04:17:44.451Z,2.59
2018-09-27T04:20:10.790Z,2.48
2018-09-27T04:22:37.104Z,2.62
2018-09-27T04:25:03.475Z,2.59
2018-09-27T04:27:29.818Z,2.88
2018-09-27T04:29:56.158Z,3.02
2018-09-27T04:32:22.473Z,3.30
2018-09-27T04:34:48.813Z,3.49
2018-09-27T04:37:15.150Z,3.55
2018-09-27T04:39:41.494Z,3.78
2018-09-27T04:42:07.803Z,4.00
2018-09-27T04:44:34.109Z,4.09
2018-09-27T04:47:00.424Z,4.12
2018-09-27T04:49:26.761Z,4.25
2018-09-27T04:51:53.151Z,4.51
2018-09-27T04:54:19.437Z,4.59
2018-09-27T04:56:45.750Z,4.90
2018-09-27T04:59:12.068Z,5.05
2018-09-27T05:01:38.381Z,5.00
2018-09-27T05:04:04.718Z,4.97
2018-09-27T05:06:31.138Z,5.11
2018-09-27T05:08:57.427Z,5.20
2018-09-27T05:11:23.766Z,5.56
2018-09-27T05:13:50.074Z,5.78
2018-09-27T05:16:16.467Z,5.96
2018-09-27T05:18:42.803Z,6.07
2018-09-27T05:21:09.172Z,6.25
2018-09-27T05:23:35.518Z,6.26
2018-09-27T05:26:01.877Z,6.41
2018-09-27T05:28:28.192Z,6.51
2018-09-27T05:30:54.536Z,6.66
2018-09-27T05:33:20.863Z,6.33
2018-09-27T05:35:47.239Z,6.53
2018-09-27T05:38:13.552Z,6.67
2018-09-27T05:40:39.895Z,6.93
2018-09-27T05:43:06.241Z,6.97
2018-09-27T05:45:32.591Z,7.18
2018-09-27T05:47:58.927Z,7.45
2018-09-27T05:50:25.256Z,7.62
2018-09-27T05:52:51.606Z,7.62
2018-09-27T05:55:17.921Z,7.66
2018-09-27T05:57:44.259Z,7.59
2018-09-27T06:00:10.568Z,7.65
2018-09-27T06:02:36.909Z,7.82
2018-09-27T06:05:03.238Z,7.87
2018-09-27T06:07:29.551Z,8.23
2018-09-27T06:09:55.893Z,8.38
2018-09-27T06:12:22.232Z,8.66
2018-09-27T06:14:48.547Z,8.70
2018-09-27T06:17:14.865Z,8.95
2018-09-27T06:19:41.252Z,9.07
2018-09-27T06:22:07.522Z,9.20
2018-09-27T06:24:33.871Z,9.60
2018-09-27T06:27:00.187Z,9.83
2018-09-27T06:29:26.526Z,9.85
2018-09-27T06:31:52.942Z,9.91
2018-09-27T06:34:19.259Z,10.05
2018-09-27T06:36:45.601Z,10.21
2018-09-27T06:39:11.946Z,10.30
2018-09-27T06:41:38.289Z,10.50
2018-09-27T06:44:04.612Z,10.60
2018-09-27T06:46:30.957Z,10.69
2018-09-27T06:48:57.291Z,10.69
2018-09-27T06:51:23.688Z,10.32
2018-09-27T06:53:50.124Z,10.50
2018-09-27T06:56:16.515Z,10.75
2018-09-27T06:58:42.780Z,10.58
2018-09-27T07:01:09.118Z,10.73
2018-09-27T07:03:35.461Z,11.26
2018-09-27T07:06:01.812Z,11.35
2018-09-27T07:08:28.203Z,11.81
2018-09-27T07:10:54.451Z,12.07
2018-09-27T07:13:20.773Z,12.19
2018-09-27T07:15:47.091Z,12.24
2018-09-27T07:18:13.434Z,12.45
2018-09-27T07:20:39.756Z,12.89
2018-09-27T07:23:06.091Z,13.13
2018-09-27T07:25:32.408Z,13.26
2018-09-27T07:27:58.725Z,12.71
2018-09-27T07:30:25.115Z,12.75
2018-09-27T07:32:51.466Z,12.82
2018-09-27T07:35:17.808Z,13.31
2018-09-27T07:37:44.149Z,13.34
2018-09-27T07:40:10.475Z,13.73
2018-09-27T07:42:36.855Z,13.97
2018-09-27T07:45:03.124Z,14.06
2018-09-27T07:47:29.433Z,13.95
2018-09-27T07:49:55.776Z,14.28
2018-09-27T07:52:22.116Z,14.32
2018-09-27T07:54:48.463Z,14.02
2018-09-27T07:57:14.797Z,14.46
2018-09-27T07:59:41.157Z,14.54
2018-09-27T08:02:07.513Z,14.73
2018-09-27T08:04:33.822Z,15.20
2018-09-27T08:07:00.138Z,15.32
2018-09-27T08:09:26.453Z,15.45
2018-09-27T08:11:52.811Z,15.60
2018-09-27T08:14:19.147Z,15.37
2018-09-27T08:16:45.531Z,14.96
2018-09-27T08:19:11.877Z,15.32
2018-09-27T08:21:38.190Z,15.35
2018-09-27T08:24:04.540Z,15.49
2018-09-27T08:26:30.897Z,15.38
2018-09-27T08:28:57.186Z,15.47
2018-09-27T08:31:23.524Z,15.60
2018-09-27T08:33:49.844Z,15.68
2018-09-27T08:36:16.163Z,15.01
2018-09-27T08:38:42.548Z,15.06
2018-09-27T08:41:08.858Z,15.13
2018-09-27T08:43:35.206Z,15.50
2018-09-27T08:46:01.542Z,15.73
2018-09-27T08:48:27.898Z,15.35
2018-09-27T08:50:54.216Z,15.19
2018-09-27T08:53:20.541Z,15.54
2018-09-27T08:55:47.045Z,16.36
2018-09-27T08:58:13.206Z,16.79
2018-09-27T09:00:39.553Z,16.88
2018-09-27T09:03:05.898Z,16.55
2018-09-27T09:05:32.217Z,16.30
2018-09-27T09:07:58.555Z,16.54
2018-09-27T09:10:24.915Z,16.88
2018-09-27T09:12:51.283Z,16.74
2018-09-27T09:15:17.621Z,16.65
2018-09-27T09:17:43.943Z,16.78
2018-09-27T09:20:10.265Z,16.72
2018-09-27T09:22:36.604Z,16.86
2018-09-27T09:25:02.977Z,16.90
2018-09-27T09:27:29.309Z,17.24
2018-09-27T09:29:55.662Z,17.59
2018-09-27T09:32:21.930Z,17.43
2018-09-27T09:34:48.251Z,17.35
2018-09-27T09:37:14.597Z,17.32
2018-09-27T09:39:40.913Z,17.94
2018-09-27T09:42:07.230Z,18.02
2018-09-27T09:44:33.577Z,17.71
2018-09-27T09:46:59.889Z,17.63
2018-09-27T09:49:26.270Z,17.86
2018-09-27T09:51:52.577Z,17.00
2018-09-27T09:54:18.916Z,17.23
2018-09-27T09:56:45.255Z,17.85
2018-09-27T09:59:11.639Z,18.03
2018-09-27T10:01:37.961Z,17.79
2018-09-27T10:04:04.336Z,18.36
2018-09-27T10:06:30.656Z,18.56
2018-09-27T10:08:57.088Z,18.78
2018-09-27T10:11:23.345Z,18.34
2018-09-27T10:13:49.683Z,17.95
2018-09-27T10:16:16.007Z,18.00
2018-09-27T10:18:42.347Z,18.28
2018-09-27T10:21:08.739Z,18.55
2018-09-27T10:23:35.057Z,18.72
2018-09-27T10:26:01.374Z,19.31
2018-09-27T10:28:27.696Z,19.66
2018-09-27T10:30:54.072Z,18.78
2018-09-27T10:33:20.385Z,18.22
2018-09-27T10:35:46.698Z,18.14
2018-09-27T10:38:13.019Z,18.38
2018-09-27T10:40:39.364Z,18.30
2018-09-27T10:43:05.703Z,19.17
2018-09-27T10:45:32.075Z,19.33
2018-09-27T10:47:58.426Z,19.29
2018-09-27T10:50:24.758Z,19.33
2018-09-27T10:52:51.100Z,19.02
2018-09-27T10:55:17.436Z,19.57
2018-09-27T10:57:43.750Z,18.72
2018-09-27T11:00:10.093Z,18.66
2018-09-27T11:02:36.435Z,18.68
2018-09-27T11:05:02.752Z,19.00
2018-09-27T11:10:15.445Z,18.96
2018-09-27T11:12:41.903Z,19.32
2018-09-27T11:15:08.251Z,19.36
2018-09-27T11:17:34.599Z,19.52
2018-09-27T11:20:00.984Z,19.98
2018-09-27T11:22:27.353Z,19.90
2018-09-27T11:24:53.785Z,20.04
2018-09-27T11:27:20.111Z,20.29
2018-09-27T11:29:46.473Z,20.10
2018-09-27T11:32:12.806Z,19.68
2018-09-27T11:34:39.118Z,20.17
2018-09-27T11:37:05.433Z,20.30
2018-09-27T11:39:31.775Z,20.55
2018-09-27T11:41:58.142Z,20.60
2018-09-27T11:44:24.489Z,19.95
2018-09-27T11:46:50.819Z,19.53
2018-09-27T11:49:17.289Z,20.34
2018-09-27T11:51:43.479Z,20.91
2018-09-27T11:54:09.798Z,20.60
2018-09-27T11:56:36.144Z,20.28
2018-09-27T11:59:02.559Z,20.48
2018-09-27T12:01:28.845Z,20.70
2018-09-27T12:03:55.149Z,20.86
2018-09-27T12:06:21.498Z,20.91
2018-09-27T12:08:47.819Z,21.06
2018-09-27T12:11:14.142Z,21.19
2018-09-27T12:13:40.572Z,20.98
2018-09-27T12:16:06.938Z,20.52
2018-09-27T12:18:33.275Z,20.34
2018-09-27T12:20:59.616Z,20.87
2018-09-27T12:23:25.940Z,21.02
2018-09-27T12:25:52.279Z,20.69
2018-09-27T12:28:18.605Z,20.53
2018-09-27T12:30:44.920Z,20.57
2018-09-27T12:33:11.323Z,20.57
2018-09-27T12:35:37.659Z,20.77
2018-09-27T12:38:03.980Z,20.24
2018-09-27T12:40:30.333Z,19.49
2018-09-27T12:42:56.725Z,19.41
2018-09-27T12:45:22.993Z,19.81
2018-09-27T12:47:49.414Z,19.57
2018-09-27T12:50:15.725Z,20.00
2018-09-27T12:52:42.089Z,19.06
2018-09-27T12:55:08.381Z,18.81
2018-09-27T12:57:34.731Z,18.30
2018-09-27T13:00:01.078Z,18.07
2018-09-27T13:02:27.452Z,17.94
2018-09-27T13:04:53.760Z,17.94
2018-09-27T13:07:20.100Z,17.82
2018-09-27T13:09:46.579Z,17.80
2018-09-27T13:12:12.836Z,17.67
2018-09-27T13:14:39.165Z,17.87
2018-09-27T13:17:05.424Z,17.63
2018-09-27T13:19:31.773Z,17.53
2018-09-27T13:21:58.053Z,17.68
2018-09-27T13:24:24.409Z,17.67
2018-09-27T13:26:50.767Z,17.68
2018-09-27T13:29:17.057Z,17.69
2018-09-27T13:31:43.403Z,17.67
2018-09-27T13:34:09.757Z,17.66
2018-09-27T13:36:36.062Z,17.60
2018-09-27T13:39:02.404Z,17.41
2018-09-27T13:41:28.694Z,17.31
2018-09-27T13:43:55.077Z,17.08
2018-09-27T13:46:21.467Z,16.90
2018-09-27T13:48:47.821Z,16.92
2018-09-27T13:51:14.135Z,17.03
2018-09-27T13:53:40.550Z,17.36
2018-09-27T13:56:06.878Z,17.39
2018-09-27T13:58:33.224Z,17.09
2018-09-27T14:00:59.607Z,16.55
2018-09-27T14:03:25.871Z,16.48
2018-09-27T14:05:52.188Z,16.61
2018-09-27T14:08:18.527Z,16.89
2018-09-27T14:10:44.867Z,17.00
2018-09-27T14:13:11.301Z,17.06
2018-09-27T14:15:37.644Z,16.88
2018-09-27T14:18:03.991Z,16.87
2018-09-27T14:20:30.310Z,16.91
2018-09-27T14:22:56.703Z,16.95
2018-09-27T14:25:23.022Z,17.06
2018-09-27T14:27:49.337Z,17.17
2018-09-27T14:30:17.248Z,16.96
2018-09-27T14:32:43.569Z,16.95
2018-09-27T14:35:09.891Z,16.80
2018-09-27T14:37:36.202Z,16.72
2018-09-27T14:40:02.523Z,16.72
2018-09-27T14:42:28.933Z,16.68
2018-09-27T14:44:55.348Z,16.66
2018-09-27T14:47:21.666Z,16.73
2018-09-27T14:49:47.986Z,16.67
2018-09-27T14:52:14.302Z,16.74
2018-09-27T14:54:40.618Z,16.72
2018-09-27T14:57:06.979Z,16.56
2018-09-27T14:59:33.364Z,16.44
2018-09-27T15:02:09.437Z,16.52
2018-09-27T15:04:35.748Z,16.54
2018-09-27T15:07:02.081Z,16.53
2018-09-27T15:09:28.467Z,16.41
2018-09-27T15:11:54.756Z,16.42
2018-09-27T15:14:21.119Z,16.41
2018-09-27T15:16:47.476Z,16.34
2018-09-27T15:19:13.817Z,16.38
2018-09-27T15:21:40.157Z,16.28
2018-09-27T15:24:06.496Z,16.20
2018-09-27T15:26:32.838Z,16.03
2018-09-27T15:28:59.181Z,15.93
2018-09-27T15:31:25.521Z,15.89
2018-09-27T15:33:51.866Z,15.82
2018-09-27T15:36:18.267Z,15.76
2018-09-27T15:38:44.601Z,15.68
2018-09-27T15:41:10.942Z,15.73
2018-09-27T15:43:37.276Z,15.68
2018-09-27T15:46:03.621Z,15.61
2018-09-27T15:48:29.963Z,15.49
2018-09-27T15:50:56.303Z,15.40
2018-09-27T15:53:22.640Z,15.40
2018-09-27T15:55:48.983Z,15.31
2018-09-27T15:58:15.315Z,15.24
2018-09-27T16:00:41.668Z,15.13
2018-09-27T16:03:08.010Z,15.05
2018-09-27T16:05:34.352Z,14.98
2018-09-27T16:08:00.697Z,14.87
2018-09-27T16:10:27.044Z,14.73
2018-09-27T16:12:53.388Z,14.62
2018-09-27T16:15:19.778Z,14.56
2018-09-27T16:17:46.136Z,14.46
2018-09-27T16:20:12.436Z,14.38
2018-09-27T16:22:38.777Z,14.28
2018-09-27T16:25:05.119Z,14.13
2018-09-27T16:27:31.461Z,14.00
2018-09-27T16:29:57.806Z,13.98
2018-09-27T16:32:24.145Z,13.95
2018-09-27T16:34:50.484Z,13.87
2018-09-27T16:37:16.824Z,13.79
2018-09-27T16:39:43.172Z,13.70
2018-09-27T16:42:09.510Z,13.63
2018-09-27T16:44:35.889Z,13.54
2018-09-27T16:47:02.229Z,13.49
2018-09-27T16:49:28.573Z,13.45
2018-09-27T16:51:55.998Z,13.35
2018-09-27T16:54:22.314Z,13.28
2018-09-27T16:56:48.626Z,13.18
2018-09-27T16:59:14.946Z,13.09
2018-09-27T17:01:41.287Z,13.07
2018-09-27T17:04:07.572Z,13.03
2018-09-27T17:06:33.938Z,12.98
2018-09-27T17:09:00.260Z,12.88
2018-09-27T17:11:26.569Z,12.78
2018-09-27T17:13:52.888Z,12.70
2018-09-27T17:16:19.255Z,12.59
2018-09-27T17:18:45.613Z,12.48
2018-09-27T17:21:11.897Z,12.47
2018-09-27T17:23:38.262Z,12.50
2018-09-27T17:26:04.530Z,12.42
2018-09-27T17:28:30.858Z,12.37
2018-09-27T17:30:57.177Z,12.35
2018-09-27T17:33:23.501Z,12.28
2018-09-27T17:35:49.847Z,12.14
2018-09-27T17:38:16.167Z,12.10
2018-09-27T17:40:42.565Z,12.22
2018-09-27T17:43:08.844Z,12.38
2018-09-27T17:45:35.207Z,12.39
2018-09-27T17:48:01.529Z,12.22
2018-09-27T17:50:27.849Z,12.06
2018-09-27T17:52:54.197Z,12.06
2018-09-27T17:55:20.586Z,12.06
2018-09-27T17:57:46.905Z,12.18
2018-09-27T18:00:14.631Z,12.26
2018-09-27T18:02:40.993Z,12.21
2018-09-27T18:05:18.815Z,12.14
2018-09-27T18:07:33.824Z,12.04
2018-09-27T18:10:00.150Z,11.94
2018-09-27T18:12:26.512Z,11.97
2018-09-27T18:14:54.491Z,12.09
2018-09-27T18:17:19.637Z,12.04
2018-09-27T18:19:46.046Z,11.96
2018-09-27T18:22:12.340Z,11.92
2018-09-27T18:24:39.117Z,11.76
2018-09-27T18:27:05.829Z,11.67
2018-09-27T18:29:32.597Z,11.32
2018-09-27T18:31:59.094Z,11.03
2018-09-27T18:34:25.476Z,11.11
2018-09-27T18:36:51.775Z,11.08
2018-09-27T18:39:18.120Z,11.11
2018-09-27T18:41:44.505Z,11.13
2018-09-27T18:44:10.841Z,11.11
2018-09-27T18:46:37.208Z,10.93
2018-09-27T18:49:03.581Z,10.70
2018-09-27T18:51:29.912Z,10.39
2018-09-27T18:53:56.240Z,10.17
2018-09-27T18:56:22.559Z,10.12
2018-09-27T18:58:48.900Z,10.03
2018-09-27T19:01:15.263Z,10.02
2018-09-27T19:03:41.616Z,10.00
2018-09-27T19:06:07.941Z,9.90
2018-09-27T19:08:34.309Z,9.92
2018-09-27T19:11:00.684Z,10.05
2018-09-27T19:13:27.038Z,10.18
2018-09-27T19:15:53.817Z,10.10
2018-09-27T19:18:20.153Z,10.01
2018-09-27T19:20:46.467Z,9.96
2018-09-27T19:23:12.832Z,10.03
2018-09-27T19:25:39.191Z,10.02
2018-09-27T19:28:05.616Z,9.98
2018-09-27T19:30:32.047Z,10.00
2018-09-27T19:32:58.451Z,9.99
2018-09-27T19:35:24.821Z,10.00
2018-09-27T19:37:51.249Z,10.03
2018-09-27T19:40:17.583Z,9.99
2018-09-27T19:42:43.903Z,10.00
2018-09-27T19:45:10.222Z,9.88
2018-09-27T19:47:36.601Z,9.82
2018-09-27T19:50:03.079Z,9.69
2018-09-27T19:52:29.407Z,9.55
2018-09-27T19:54:55.758Z,9.44
2018-09-27T19:57:22.114Z,9.29
2018-09-27T19:59:48.454Z,8.83
2018-09-27T20:02:14.767Z,8.52
2018-09-27T20:04:41.135Z,8.45
2018-09-27T20:07:07.414Z,8.39
2018-09-27T20:09:33.774Z,8.29
2018-09-27T20:12:00.094Z,8.24
2018-09-27T20:14:26.410Z,8.30
2018-09-27T20:16:52.797Z,8.32
2018-09-27T20:19:19.084Z,8.27
2018-09-27T20:21:45.444Z,8.17
2018-09-27T20:24:11.771Z,8.14
2018-09-27T20:26:38.124Z,8.33
2018-09-27T20:29:04.452Z,8.49
2018-09-27T20:31:30.772Z,8.48
2018-09-27T20:33:57.127Z,8.42
2018-09-27T20:36:23.420Z,8.45
2018-09-27T20:38:49.734Z,8.55
2018-09-27T20:41:16.144Z,8.49
2018-09-27T20:43:42.514Z,8.46
2018-09-27T20:46:08.829Z,8.40
2018-09-27T20:48:35.248Z,8.36
2018-09-27T20:51:01.568Z,8.35
2018-09-27T20:53:27.926Z,8.35
2018-09-27T20:55:54.236Z,8.38
2018-09-27T20:58:20.549Z,8.43
2018-09-27T21:00:46.867Z,8.52
2018-09-27T21:03:13.207Z,8.58
2018-09-27T21:05:39.503Z,8.49
2018-09-27T21:08:05.813Z,8.41
2018-09-27T21:10:32.133Z,8.38
2018-09-27T21:12:58.454Z,8.36
2018-09-27T21:15:24.771Z,8.35
2018-09-27T21:17:51.107Z,8.37
2018-09-27T21:20:17.464Z,8.32
2018-09-27T21:22:43.773Z,8.31
2018-09-27T21:25:10.148Z,8.42
2018-09-27T21:27:36.409Z,8.40
2018-09-27T21:30:02.738Z,8.58
2018-09-27T21:32:29.113Z,8.67
2018-09-27T21:34:55.456Z,8.71
2018-09-27T21:37:21.876Z,9.04
2018-09-27T21:39:48.200Z,9.41
2018-09-27T21:42:14.527Z,9.51
2018-09-27T21:44:40.859Z,9.38
2018-09-27T21:47:07.192Z,9.44
2018-09-27T21:49:33.518Z,9.64
2018-09-27T21:51:59.850Z,9.64
2018-09-27T21:54:26.186Z,9.56
2018-09-27T21:56:52.518Z,9.58
2018-09-27T21:59:18.853Z,9.28
2018-09-27T22:01:45.184Z,9.23
2018-09-27T22:04:11.515Z,9.45
2018-09-27T22:06:37.846Z,9.43
2018-09-27T22:09:04.168Z,9.25
2018-09-27T22:11:30.490Z,9.29
2018-09-27T22:13:56.806Z,8.85
2018-09-27T22:16:23.124Z,8.43
2018-09-27T22:18:49.479Z,8.02
2018-09-27T22:21:15.792Z,7.86
2018-09-27T22:23:42.100Z,7.75
2018-09-27T22:26:08.423Z,7.48
2018-09-27T22:28:34.738Z,7.49
2018-09-27T22:31:01.110Z,7.65
2018-09-27T22:33:27.428Z,8.06
2018-09-27T22:35:53.739Z,8.08
2018-09-27T22:38:20.058Z,8.27
2018-09-27T22:40:46.371Z,8.33
2018-09-27T22:43:12.761Z,8.54
2018-09-27T22:45:39.042Z,8.56
2018-09-27T22:48:05.353Z,8.32
2018-09-27T22:50:31.680Z,8.33
2018-09-27T22:52:57.997Z,8.49
2018-09-27T22:55:24.322Z,8.55
2018-09-27T22:57:50.643Z,8.55
2018-09-27T23:00:16.982Z,8.22
2018-09-27T23:02:43.264Z,8.28
2018-09-27T23:05:09.589Z,8.36
2018-09-27T23:07:35.930Z,8.33
2018-09-27T23:10:02.285Z,8.34
2018-09-27T23:12:28.602Z,8.19
2018-09-27T23:14:54.955Z,8.49
2018-09-27T23:17:21.310Z,8.60
2018-09-27T23:19:47.624Z,8.44
2018-09-27T23:22:13.935Z,8.51
2018-09-27T23:24:40.262Z,8.73
2018-09-27T23:27:06.574Z,8.82
2018-09-27T23:29:32.893Z,8.57
2018-09-27T23:31:59.207Z,8.64
2018-09-27T23:34:25.520Z,8.61
2018-09-27T23:36:51.837Z,8.53
2018-09-27T23:39:18.158Z,8.43
2018-09-27T23:41:44.469Z,8.13
2018-09-27T23:44:10.802Z,8.05
2018-09-27T23:46:37.113Z,8.17
2018-09-27T23:49:03.430Z,8.22
2018-09-27T23:51:29.740Z,8.06
2018-09-27T23:53:56.050Z,8.07
2018-09-27T23:56:22.365Z,8.33
2018-09-27T23:58:48.686Z,8.42
